Time;durP1;ratioP1;P1;durP2;ratioP2;P2;SDS_P1;SDS_P2;PMS_P1;PMS_P2;Temp;Humidity;BMP_temperature;BMP_pressure;BME280_temperature;BME280_humidity;BME280_pressure;Samples;Min_cycle;Max_cycle;Signal;HPM_P1;HPM_P2
2022/06/18 00:00:50;;;;;;;7.85;5.67;;;;;;;17.26;70.84;100673.28;1747799;81;21066;-48
2022/06/18 00:03:18;;;;;;;8.65;5.67;;;;;;;17.25;70.85;100672.94;1746802;81;21463;-49
2022/06/18 00:05:46;;;;;;;9.28;6.15;;;;;;;17.26;70.88;100667.11;1743119;81;21883;-49
2022/06/18 00:08:19;;;;;;;7.17;5.53;;;;;;;17.27;71.02;100666.12;1742169;81;21032;-48
2022/06/18 00:10:45;;;;;;;7.95;5.40;;;;;;;17.23;70.89;100668.28;1738462;81;21066;-48
2022/06/18 00:13:40;;;;;;;7.62;5.62;;;;;;;17.20;71.03;100664.60;1741619;81;21012;-48
2022/06/18 00:16:13;;;;;;;9.75;5.15;;;;;;;17.20;71.24;100659.80;1745995;81;21038;-48
2022/06/18 00:18:41;;;;;;;7.10;5.12;;;;;;;17.25;70.98;100654.32;1707781;82;21138;-48
2022/06/18 00:21:08;;;;;;;10.60;5.03;;;;;;;17.27;70.89;100652.33;1711273;82;21502;-48
2022/06/18 00:23:37;;;;;;;7.72;5.80;;;;;;;17.28;70.95;100653.15;1694521;82;21584;-48
2022/06/18 00:26:03;;;;;;;6.75;4.80;;;;;;;17.23;70.95;100652.80;1740046;80;21084;-48
2022/06/18 00:28:32;;;;;;;8.38;5.80;;;;;;;17.21;71.00;100652.13;1746577;80;21043;-48
2022/06/18 00:30:59;;;;;;;7.08;5.65;;;;;;;17.27;71.07;100654.16;1706776;83;21122;-48
2022/06/18 00:33:26;;;;;;;8.05;5.30;;;;;;;17.31;70.85;100650.69;1707938;82;21058;-48
2022/06/18 00:35:56;;;;;;;7.85;6.20;;;;;;;17.34;70.87;100643.72;1709938;83;21117;-48
2022/06/18 00:38:32;;;;;;;7.67;5.60;;;;;;;17.29;70.80;100648.18;1707035;81;21490;-48
2022/06/18 00:40:59;;;;;;;6.65;5.30;;;;;;;17.24;70.91;100649.16;1735498;81;21106;-48
2022/06/18 00:43:45;;;;;;;7.47;5.58;;;;;;;17.24;71.00;100649.98;1700174;82;21173;-48
2022/06/18 00:46:27;;;;;;;7.20;5.10;;;;;;;17.31;70.86;100650.69;1747302;81;21569;-49
2022/06/18 00:49:20;;;;;;;8.68;5.30;;;;;;;17.30;70.65;100646.34;1703274;82;21061;-47
2022/06/18 00:51:53;;;;;;;7.22;5.65;;;;;;;17.31;70.68;100650.69;1702792;83;21054;-47
2022/06/18 00:54:30;;;;;;;8.95;5.60;;;;;;;17.31;70.69;100654.16;1698727;82;21069;-48
2022/06/18 00:57:02;;;;;;;8.35;5.20;;;;;;;17.22;70.61;100646.66;1741961;81;22406;-48
2022/06/18 00:59:46;;;;;;;7.62;5.35;;;;;;;17.12;70.85;100648.61;1742248;81;21052;-48
2022/06/18 01:02:21;;;;;;;7.72;5.67;;;;;;;17.11;71.03;100641.61;1750559;80;21114;-48
2022/06/18 01:04:48;;;;;;;8.70;5.85;;;;;;;17.10;70.99;100642.62;1709867;82;21042;-48
2022/06/18 01:07:29;;;;;;;7.12;5.55;;;;;;;17.04;70.87;100639.27;1715033;82;21102;-48
2022/06/18 01:09:57;;;;;;;7.95;5.70;;;;;;;16.97;70.86;100638.23;1716915;82;21093;-48
2022/06/18 01:12:24;;;;;;;7.20;5.55;;;;;;;16.89;71.30;100639.02;1711151;82;21183;-49
2022/06/18 01:15:06;;;;;;;6.97;5.85;;;;;;;16.82;71.43;100637.95;1704864;82;21655;-50
2022/06/18 01:17:36;;;;;;;7.20;5.42;;;;;;;16.79;71.48;100640.92;1704439;82;21105;-49
2022/06/18 01:20:05;;;;;;;7.20;5.40;;;;;;;16.73;71.41;100642.39;1706248;82;21067;-48
2022/06/18 01:23:08;;;;;;;7.62;5.95;;;;;;;16.68;71.63;100638.88;1698425;84;21130;-48
2022/06/18 01:25:36;;;;;;;7.22;5.58;;;;;;;16.66;71.79;100638.20;1698583;84;21028;-48
2022/06/18 01:28:03;;;;;;;9.33;5.62;;;;;;;16.56;71.95;100645.44;1700989;83;21060;-48
2022/06/18 01:30:36;;;;;;;8.53;5.17;;;;;;;16.44;72.17;100642.20;1689497;84;21079;-49
2022/06/18 01:33:08;;;;;;;7.53;5.58;;;;;;;16.38;72.50;100641.98;1687882;84;21024;-48
2022/06/18 01:35:42;;;;;;;7.92;5.60;;;;;;;16.40;72.53;100646.14;1681554;84;21119;-48
2022/06/18 01:38:11;;;;;;;7.42;5.12;;;;;;;16.44;72.43;100644.86;1695210;84;21542;-48
2022/06/18 01:41:49;;;;;;;7.08;5.50;;;;;;;16.46;72.46;100642.88;1678677;84;21075;-49
2022/06/18 01:43:27;;;;;;;7.90;5.50;;;;;;;16.42;72.41;100640.67;1668829;84;21112;-48
2022/06/18 01:45:59;;;;;;;8.93;5.55;;;;;;;16.35;72.50;100641.28;1683091;84;21123;-48
2022/06/18 01:48:34;;;;;;;7.67;5.70;;;;;;;16.32;72.69;100642.09;1681961;84;21207;-48
2022/06/18 01:51:08;;;;;;;8.28;5.70;;;;;;;16.33;72.68;100637.13;1693268;84;21064;-48
2022/06/18 01:53:47;;;;;;;8.03;5.50;;;;;;;16.37;72.48;100631.02;1697687;84;21491;-48
2022/06/18 01:56:24;;;;;;;7.50;5.35;;;;;;;16.37;72.54;100635.81;1698210;84;21151;-49
2022/06/18 01:59:02;;;;;;;9.18;6.15;;;;;;;16.47;72.80;100637.06;1696914;84;21130;-48
2022/06/18 02:01:38;;;;;;;9.40;6.33;;;;;;;16.55;72.79;100641.61;1683664;84;21168;-49
2022/06/18 02:04:05;;;;;;;8.63;6.15;;;;;;;16.59;72.50;100635.80;1667675;84;21072;-48
2022/06/18 02:06:36;;;;;;;8.10;5.65;;;;;;;16.61;72.19;100640.97;1697349;84;21522;-48
2022/06/18 02:09:08;;;;;;;8.55;5.60;;;;;;;16.68;72.12;100639.38;1696977;84;21067;-48
2022/06/18 02:11:35;;;;;;;9.33;6.58;;;;;;;16.74;71.76;100640.05;1688057;84;21068;-48
2022/06/18 02:14:07;;;;;;;8.85;6.22;;;;;;;16.75;71.49;100630.28;1695580;83;21100;-49
2022/06/18 02:16:39;;;;;;;7.92;5.70;;;;;;;16.76;71.52;100630.60;1693386;83;21050;-48
2022/06/18 02:19:07;;;;;;;8.38;6.15;;;;;;;16.75;71.45;100621.80;1697836;83;21629;-48
2022/06/18 02:21:42;;;;;;;11.15;6.03;;;;;;;16.70;71.34;100620.94;1699016;83;21048;-49
2022/06/18 02:24:08;;;;;;;9.75;6.30;;;;;;;16.67;71.21;100623.91;1705710;83;21098;-49
2022/06/18 02:26:36;;;;;;;7.62;5.20;;;;;;;16.70;71.30;100624.10;1705815;83;21083;-49
2022/06/18 02:29:04;;;;;;;8.43;5.75;;;;;;;16.75;71.33;100619.66;1694123;83;21062;-48
2022/06/18 02:31:34;;;;;;;9.28;5.92;;;;;;;16.77;71.25;100621.66;1698627;83;21098;-48
2022/06/18 02:34:10;;;;;;;8.48;5.83;;;;;;;16.76;71.35;100620.83;1702625;83;21098;-48
2022/06/18 02:36:39;;;;;;;8.13;5.67;;;;;;;16.77;71.40;100626.97;1702672;83;21098;-49
2022/06/18 02:39:40;;;;;;;9.55;5.40;;;;;;;16.78;71.31;100629.94;1698946;83;21117;-48
2022/06/18 02:42:15;;;;;;;8.95;5.92;;;;;;;16.78;71.27;100639.24;1700781;83;21530;-49
2022/06/18 02:44:43;;;;;;;7.63;5.60;;;;;;;16.85;71.10;100636.34;1702971;83;21524;-49
2022/06/18 02:47:12;;;;;;;6.95;5.40;;;;;;;16.90;70.94;100641.52;1702228;83;21259;-49
2022/06/18 02:49:46;;;;;;;7.37;5.42;;;;;;;16.94;70.76;100635.89;1703086;83;21070;-49
2022/06/18 02:52:12;;;;;;;7.78;6.10;;;;;;;16.97;70.62;100639.56;1700424;83;21676;-49
2022/06/18 02:54:40;;;;;;;8.18;6.03;;;;;;;16.93;70.58;100641.71;1667109;83;21117;-49
2022/06/18 02:57:12;;;;;;;7.35;5.37;;;;;;;16.88;70.29;100638.70;1704252;83;21070;-49
2022/06/18 02:59:39;;;;;;;8.10;5.60;;;;;;;16.85;70.43;100645.14;1689164;83;21020;-49
2022/06/18 03:02:07;;;;;;;7.47;5.53;;;;;;;16.86;70.40;100640.18;1702280;83;21135;-49
2022/06/18 03:04:34;;;;;;;8.48;5.70;;;;;;;16.88;70.53;100638.19;1701760;83;21962;-50
2022/06/18 03:07:01;;;;;;;8.60;5.95;;;;;;;16.90;70.57;100634.05;1695829;83;21008;-49
2022/06/18 03:09:27;;;;;;;7.50;5.70;;;;;;;16.90;70.64;100640.19;1705240;82;21118;-49
2022/06/18 03:12:06;;;;;;;9.05;6.70;;;;;;;16.92;70.58;100640.54;1696446;83;21078;-49
2022/06/18 03:14:35;;;;;;;8.98;5.83;;;;;;;16.85;70.49;100641.16;1690952;83;21114;-49
2022/06/18 03:17:03;;;;;;;7.00;5.30;;;;;;;16.76;70.60;100648.73;1696850;83;21142;-49
2022/06/18 03:19:37;;;;;;;8.33;5.35;;;;;;;16.75;70.63;100652.36;1697960;83;21004;-49
2022/06/18 03:22:09;;;;;;;8.10;6.22;;;;;;;16.71;70.67;100651.02;1704067;83;21090;-50
2022/06/18 03:24:36;;;;;;;8.20;5.45;;;;;;;16.70;70.93;100654.16;1686344;83;21140;-49
2022/06/18 03:27:05;;;;;;;7.72;5.67;;;;;;;16.62;71.09;100650.11;1698723;83;21597;-49
2022/06/18 03:29:32;;;;;;;7.42;5.53;;;;;;;16.57;71.41;100652.40;1697783;83;21907;-49
2022/06/18 03:32:00;;;;;;;7.60;5.50;;;;;;;16.55;71.52;100653.56;1705635;83;21039;-49
2022/06/18 03:34:28;;;;;;;8.00;5.80;;;;;;;16.58;71.57;100651.93;1704839;82;22383;-50
2022/06/18 03:36:56;;;;;;;7.40;5.83;;;;;;;16.61;71.50;100648.94;1700951;83;21110;-49
2022/06/18 03:39:24;;;;;;;7.65;5.95;;;;;;;16.62;71.46;100651.95;1703529;83;21553;-53
2022/06/18 03:41:52;;;;;;;12.00;6.60;;;;;;;16.59;71.49;100657.56;1687206;83;21134;-49
2022/06/18 03:44:18;;;;;;;8.15;6.47;;;;;;;16.56;71.70;100652.55;1702516;82;21107;-49
2022/06/18 03:46:45;;;;;;;7.83;6.05;;;;;;;16.57;71.70;100656.89;1695189;83;21126;-49
2022/06/18 03:49:19;;;;;;;7.85;5.85;;;;;;;16.61;71.69;100656.91;1701587;83;21054;-50
2022/06/18 03:51:47;;;;;;;8.53;6.22;;;;;;;16.66;71.56;100658.13;1702041;83;21370;-50
2022/06/18 03:54:13;;;;;;;8.75;7.03;;;;;;;16.70;71.47;100663.95;1701392;83;22307;-49
2022/06/18 03:56:40;;;;;;;8.95;6.70;;;;;;;16.69;71.49;100661.80;1694812;83;21484;-50
2022/06/18 03:59:09;;;;;;;8.40;6.95;;;;;;;16.65;71.65;100660.43;1688649;83;21027;-53
2022/06/18 04:01:40;;;;;;;8.15;7.17;;;;;;;16.61;71.86;100652.92;1700370;83;21550;-48
2022/06/18 04:04:05;;;;;;;8.85;6.78;;;;;;;16.57;72.14;100647.59;1698748;83;21356;-48
2022/06/18 04:06:34;;;;;;;7.83;6.67;;;;;;;16.57;72.29;100653.73;1697086;83;21296;-48
2022/06/18 04:09:03;;;;;;;10.15;7.15;;;;;;;16.64;72.25;100658.78;1704097;83;21386;-48
2022/06/18 04:11:32;;;;;;;10.18;6.95;;;;;;;16.71;72.14;100652.35;1698170;83;21118;-51
2022/06/18 04:13:59;;;;;;;10.18;7.67;;;;;;;16.80;72.16;100658.55;1699626;82;21063;-49
2022/06/18 04:16:35;;;;;;;10.98;7.87;;;;;;;16.81;72.02;100658.39;1696832;83;21530;-48
2022/06/18 04:19:03;;;;;;;8.28;7.35;;;;;;;16.78;72.06;100666.67;1703870;83;21141;-48
2022/06/18 04:21:31;;;;;;;9.40;7.60;;;;;;;16.77;72.24;100662.33;1701293;83;21075;-49
2022/06/18 04:23:58;;;;;;;9.70;6.85;;;;;;;16.84;72.14;100658.55;1704122;83;21074;-48
2022/06/18 04:26:26;;;;;;;9.10;7.75;;;;;;;16.92;72.14;100663.13;1700960;83;21068;-48
2022/06/18 04:28:52;;;;;;;9.98;8.55;;;;;;;17.02;72.11;100659.86;1694592;83;21067;-48
2022/06/18 04:31:20;;;;;;;10.18;8.63;;;;;;;17.08;71.80;100660.56;1745143;81;21130;-48
2022/06/18 04:33:48;;;;;;;13.18;8.35;;;;;;;17.12;71.81;100663.23;1713900;82;21042;-49
2022/06/18 04:36:38;;;;;;;11.33;8.85;;;;;;;17.10;71.71;100663.89;1708978;82;21026;-49
2022/06/18 04:39:06;;;;;;;12.23;8.95;;;;;;;17.16;71.71;100665.08;1704054;83;21104;-49
2022/06/18 04:41:41;;;;;;;10.98;8.95;;;;;;;17.25;71.51;100670.27;1690820;83;21075;-49
2022/06/18 04:44:12;;;;;;;11.53;8.65;;;;;;;17.34;71.38;100668.98;1701199;83;21148;-49
2022/06/18 04:46:41;;;;;;;11.18;8.90;;;;;;;17.37;71.02;100673.98;1697688;83;21611;-49
2022/06/18 04:49:08;;;;;;;12.20;8.80;;;;;;;17.40;71.16;100674.97;1745600;81;21062;-48
2022/06/18 04:51:35;;;;;;;11.15;9.48;;;;;;;17.42;71.14;100669.84;1746181;81;20992;-49
2022/06/18 04:54:02;;;;;;;11.65;9.18;;;;;;;17.46;70.88;100670.35;1706827;83;21069;-50
2022/06/18 04:56:29;;;;;;;11.45;9.53;;;;;;;17.48;70.60;100671.02;1705768;82;21139;-48
2022/06/18 04:58:55;;;;;;;9.20;8.18;;;;;;;17.52;70.17;100679.03;1709572;83;21003;-50
2022/06/18 05:01:29;;;;;;;10.23;9.13;;;;;;;17.54;70.38;100673.55;1704600;82;21045;-48
2022/06/18 05:03:58;;;;;;;;;;;;;;;17.57;70.46;100690.53;1696672;83;21054;-49
2022/06/18 05:06:37;;;;;;;11.70;9.73;;;;;;;17.58;70.44;100685.02;1701425;83;20201;-49
2022/06/18 05:22:30;;;;;;;11.48;10.28;;;;;;;18.53;68.18;100691.35;1825824;77;22650;-47
2022/06/18 05:24:59;;;;;;;11.10;9.98;;;;;;;18.57;67.34;100691.34;1812245;77;21008;-49
2022/06/18 05:27:29;;;;;;;12.05;10.30;;;;;;;18.52;67.13;100693.67;1819381;77;21919;-49
2022/06/18 05:29:56;;;;;;;12.85;11.05;;;;;;;18.43;67.10;100691.20;1820181;78;21053;-49
2022/06/18 05:32:24;;;;;;;12.70;11.10;;;;;;;18.41;67.58;100692.70;1823834;78;21501;-49
2022/06/18 05:34:51;;;;;;;13.00;11.08;;;;;;;18.39;67.36;100697.34;1778008;78;21071;-49
2022/06/18 05:37:26;;;;;;;12.13;10.03;;;;;;;18.38;67.59;100700.51;1769083;79;21029;-49
2022/06/18 05:39:53;;;;;;;11.18;10.08;;;;;;;18.45;67.61;100706.52;1767146;80;21082;-50
2022/06/18 05:42:21;;;;;;;12.78;10.40;;;;;;;18.48;67.79;100704.86;1769688;79;21016;-49
2022/06/18 05:44:48;;;;;;;12.68;11.38;;;;;;;18.60;67.66;100700.02;1769831;80;20972;-49
2022/06/18 05:47:22;;;;;;;12.25;10.98;;;;;;;18.77;66.82;100708.32;1773102;79;21053;-49
2022/06/18 05:49:51;;;;;;;13.50;11.35;;;;;;;18.91;66.26;100710.34;1787593;79;21032;-49
2022/06/18 05:52:19;;;;;;;13.53;12.23;;;;;;;19.02;65.95;100717.14;1788808;78;21172;-49
2022/06/18 05:54:47;;;;;;;13.38;12.03;;;;;;;19.04;65.03;100712.47;1733597;82;21452;-48
2022/06/18 05:57:31;;;;;;;12.80;10.78;;;;;;;19.14;64.58;100715.45;1765476;80;21033;-49
2022/06/18 06:00:13;;;;;;;12.93;11.48;;;;;;;19.27;64.58;100716.58;1776065;80;21040;-49
2022/06/18 06:02:40;;;;;;;13.98;12.47;;;;;;;19.38;64.15;100723.37;1773288;80;21055;-48
2022/06/18 06:05:08;;;;;;;13.38;11.80;;;;;;;19.47;63.62;100724.19;1766997;80;21144;-49
2022/06/18 06:07:36;;;;;;;13.85;11.33;;;;;;;19.46;63.42;100735.34;1731955;80;21479;-49
2022/06/18 06:13:11;;;;;;;14.13;12.10;;;;;;;19.44;63.83;100732.03;1767647;80;21066;-54
2022/06/18 06:15:39;;;;;;;12.55;11.25;;;;;;;19.49;62.39;100716.33;1764712;80;21476;-50
2022/06/18 06:18:05;;;;;;;13.80;10.82;;;;;;;19.48;61.74;100713.83;1762156;80;21134;-50
2022/06/18 06:20:38;;;;;;;14.15;12.65;;;;;;;19.43;62.48;100713.52;1767283;80;21141;-50
2022/06/18 06:23:06;;;;;;;14.00;12.50;;;;;;;19.47;62.26;100718.34;1759346;80;21060;-50
2022/06/18 06:25:35;;;;;;;13.35;11.85;;;;;;;19.48;62.35;100705.34;1766001;80;21625;-50
2022/06/18 06:28:02;;;;;;;16.77;12.93;;;;;;;19.49;61.98;100718.17;1761324;80;21055;-50
2022/06/18 06:30:30;;;;;;;12.58;11.28;;;;;;;19.49;61.76;100713.66;1780853;79;21054;-50
2022/06/18 06:32:57;;;;;;;15.72;12.03;;;;;;;19.53;62.21;100719.48;1766400;80;21498;-49
2022/06/18 06:35:23;;;;;;;13.95;11.35;;;;;;;19.70;61.96;100724.75;1763487;79;21065;-49
2022/06/18 06:37:50;;;;;;;13.80;12.00;;;;;;;19.85;61.49;100719.88;1765891;80;21520;-50
2022/06/18 06:40:17;;;;;;;13.22;10.80;;;;;;;19.98;61.59;100727.80;1782435;80;21044;-49
2022/06/18 06:42:48;;;;;;;13.05;11.68;;;;;;;20.09;60.84;100726.08;1765966;80;21128;-50
2022/06/18 06:45:23;;;;;;;14.05;11.20;;;;;;;20.15;61.09;100726.68;1767253;80;21576;-52
2022/06/18 06:47:50;;;;;;;15.03;11.97;;;;;;;20.18;61.16;100719.66;1771884;79;21050;-50
2022/06/18 06:50:18;;;;;;;13.15;11.20;;;;;;;20.20;60.12;100724.30;1771857;80;21065;-50
2022/06/18 06:52:45;;;;;;;13.22;11.33;;;;;;;20.16;59.82;100723.53;1768339;79;21040;-50
2022/06/18 06:58:11;;;;;;;13.98;10.30;;;;;;;20.23;59.62;100718.61;1765233;79;21540;-50
2022/06/18 07:00:45;;;;;;;12.20;10.45;;;;;;;20.29;59.72;100721.58;1770021;79;21137;-49
2022/06/18 07:03:14;;;;;;;13.20;11.15;;;;;;;20.38;59.90;100724.02;1756021;80;21017;-50
2022/06/18 07:05:40;;;;;;;12.30;11.10;;;;;;;20.49;58.95;100721.41;1759037;80;21054;-49
2022/06/18 07:08:07;;;;;;;11.80;10.53;;;;;;;20.46;58.82;100720.95;1763704;80;21148;-50
2022/06/18 07:10:36;;;;;;;13.28;10.28;;;;;;;20.37;58.57;100722.34;1786398;78;21089;-50
2022/06/18 07:13:04;;;;;;;12.07;10.32;;;;;;;20.33;59.05;100725.58;1768811;80;20998;-50
2022/06/18 07:15:34;;;;;;;11.80;10.28;;;;;;;20.36;58.76;100722.55;1763045;79;21540;-50
2022/06/18 07:18:03;;;;;;;14.75;10.08;;;;;;;20.42;58.94;100721.81;1765908;79;21056;-50
2022/06/18 07:20:32;;;;;;;9.50;8.55;;;;;;;20.48;58.27;100722.44;1762706;80;20968;-52
2022/06/18 07:22:58;;;;;;;14.45;9.28;;;;;;;20.55;58.32;100725.23;1770103;80;21574;-50
2022/06/18 07:25:25;;;;;;;11.43;10.00;;;;;;;20.66;58.03;100715.97;1767887;80;21573;-47
2022/06/18 07:27:54;;;;;;;10.00;8.20;;;;;;;20.76;57.28;100717.39;1774727;79;21007;-48
2022/06/18 07:30:21;;;;;;;9.73;8.70;;;;;;;20.86;57.86;100717.10;1764677;80;21085;-50
2022/06/18 07:32:48;;;;;;;9.83;7.85;;;;;;;21.06;57.41;100720.08;1773145;79;21081;-49
2022/06/18 07:35:22;;;;;;;8.65;7.75;;;;;;;21.21;55.91;100716.08;1772907;79;21102;-49
2022/06/18 07:37:49;;;;;;;10.65;9.25;;;;;;;21.28;56.10;100718.84;1767662;79;20993;-48
2022/06/18 07:40:16;;;;;;;10.88;8.43;;;;;;;21.28;56.45;100721.03;1770314;80;21147;-49
2022/06/18 07:42:43;;;;;;;10.75;8.43;;;;;;;21.22;56.36;100719.09;1769156;79;21080;-49
2022/06/18 07:45:18;;;;;;;10.35;8.23;;;;;;;21.15;56.48;100720.33;1768614;80;21141;-49
2022/06/18 07:47:46;;;;;;;9.20;7.65;;;;;;;21.06;56.45;100711.23;1770930;79;21486;-48
2022/06/18 07:50:14;;;;;;;10.23;8.65;;;;;;;20.96;56.18;100714.17;1768325;80;21551;-50
2022/06/18 07:52:41;;;;;;;8.83;7.42;;;;;;;20.83;56.13;100722.84;1763667;80;21591;-49
2022/06/18 07:55:25;;;;;;;8.33;6.83;;;;;;;20.72;56.50;100722.76;1765001;80;21046;-49
2022/06/18 07:57:52;;;;;;;8.80;7.90;;;;;;;20.69;57.21;100722.30;1769918;79;21141;-50
2022/06/18 08:00:21;;;;;;;10.08;8.33;;;;;;;20.66;57.22;100723.98;1763013;79;21555;-50
2022/06/18 08:02:49;;;;;;;9.60;6.85;;;;;;;20.65;57.51;100729.03;1767993;79;21086;-50
2022/06/18 08:05:23;;;;;;;10.10;7.05;;;;;;;20.70;57.89;100733.33;1771658;80;21539;-52
2022/06/18 08:07:51;;;;;;;8.13;6.92;;;;;;;20.77;56.82;100730.25;1774106;80;21105;-51
2022/06/18 08:10:19;;;;;;;9.40;6.30;;;;;;;20.81;57.66;100734.72;1762513;80;21121;-50
2022/06/18 08:12:46;;;;;;;7.15;6.17;;;;;;;20.85;57.22;100734.19;1771763;80;21088;-50
2022/06/18 08:15:12;;;;;;;8.53;6.22;;;;;;;20.89;57.05;100731.97;1771005;80;21045;-50
2022/06/18 08:17:39;;;;;;;9.18;6.08;;;;;;;20.95;56.82;100731.25;1770282;79;21118;-55
2022/06/18 08:20:08;;;;;;;8.10;5.78;;;;;;;20.99;56.91;100725.84;1772737;79;21577;-50
2022/06/18 08:22:35;;;;;;;8.18;6.10;;;;;;;21.05;56.08;100730.99;1772252;79;21848;-50
2022/06/18 08:25:02;;;;;;;7.17;5.80;;;;;;;21.10;56.07;100734.77;1775282;80;21045;-50
2022/06/18 08:27:29;;;;;;;8.68;5.80;;;;;;;21.14;55.20;100726.69;1771006;79;21389;-50
2022/06/18 08:29:56;;;;;;;8.00;6.17;;;;;;;21.14;54.67;100730.70;1742525;80;21106;-50
2022/06/18 08:32:22;;;;;;;10.15;6.03;;;;;;;21.13;54.85;100733.55;1764708;79;21035;-50
2022/06/18 08:34:49;;;;;;;8.53;7.15;;;;;;;21.12;55.40;100735.92;1773179;79;21111;-50
2022/06/18 08:37:15;;;;;;;7.47;6.50;;;;;;;21.11;54.91;100743.62;1765234;79;21062;-50
2022/06/18 08:39:43;;;;;;;7.35;6.45;;;;;;;21.11;55.60;100742.28;1765512;80;21013;-50
2022/06/18 08:42:44;;;;;;;9.58;7.95;;;;;;;21.17;55.84;100736.20;1767317;79;21090;-49
2022/06/18 08:45:26;;;;;;;9.90;7.25;;;;;;;21.20;55.00;100731.83;1778415;80;21542;-48
2022/06/18 08:48:16;;;;;;;10.68;8.23;;;;;;;21.16;55.76;100741.22;1755985;80;21549;-50
2022/06/18 08:51:10;;;;;;;11.63;7.67;;;;;;;21.11;56.30;100736.41;1760598;80;21064;-49
2022/06/18 08:53:56;;;;;;;9.40;7.40;;;;;;;21.06;56.14;100737.47;1768765;79;21049;-49
2022/06/18 08:56:30;;;;;;;9.28;6.60;;;;;;;21.06;56.03;100735.31;1771680;79;21052;-49
2022/06/18 08:59:09;;;;;;;7.35;5.15;;;;;;;21.04;55.62;100746.19;1763399;79;21466;-49
2022/06/18 09:01:42;;;;;;;6.78;4.42;;;;;;;21.05;54.73;100748.38;1764559;79;21140;-49
2022/06/18 09:04:34;;;;;;;7.45;4.12;;;;;;;21.06;53.41;100745.50;1767458;80;21121;-50
2022/06/18 09:07:41;;;;;;;7.95;5.08;;;;;;;21.10;52.94;100743.31;1768222;79;21066;-50
2022/06/18 09:10:18;;;;;;;7.00;5.62;;;;;;;21.23;53.64;100743.99;1770989;79;21054;-49
2022/06/18 09:13:04;;;;;;;7.30;5.65;;;;;;;21.33;53.35;100744.55;1765237;79;21074;-50
2022/06/18 09:15:43;;;;;;;7.12;6.10;;;;;;;21.36;53.62;100752.73;1759911;79;21071;-50
2022/06/18 09:18:20;;;;;;;7.37;5.50;;;;;;;21.44;54.24;100752.13;1743080;80;21082;-49
2022/06/18 09:20:54;;;;;;;8.83;6.40;;;;;;;21.52;54.09;100749.90;1767318;79;21084;-51
2022/06/18 09:23:31;;;;;;;10.85;6.08;;;;;;;21.61;54.04;100748.77;1768067;79;21046;-50
2022/06/18 09:25:59;;;;;;;7.83;5.70;;;;;;;21.71;53.59;100741.27;1768953;80;21003;-49
2022/06/18 09:28:34;;;;;;;9.05;6.25;;;;;;;21.78;53.63;100749.91;1787176;79;21505;-49
2022/06/18 09:31:14;;;;;;;;;;;;;;;21.82;53.54;100752.52;1784605;79;21091;-49
2022/06/18 09:33:53;;;;;;;9.35;6.40;;;;;;;21.85;53.25;100759.66;1781402;80;20187;-50
2022/06/18 09:36:36;;;;;;;7.90;7.10;;;;;;;21.82;53.70;100757.38;1781129;79;21050;-49
2022/06/18 09:39:11;;;;;;;8.43;7.25;;;;;;;21.78;55.14;100749.91;1782098;79;21058;-50
2022/06/18 09:42:02;;;;;;;9.60;7.15;;;;;;;21.77;56.03;100749.56;1782975;79;21018;-50
2022/06/18 09:44:43;;;;;;;7.87;6.90;;;;;;;21.83;56.88;100755.52;1766513;80;21078;-50
2022/06/18 09:47:39;;;;;;;9.60;7.03;;;;;;;21.92;57.25;100751.70;1765575;80;21061;-49
2022/06/18 09:50:45;;;;;;;8.53;7.47;;;;;;;22.03;57.03;100752.56;1764179;80;21070;-49
2022/06/18 09:53:31;;;;;;;7.97;6.97;;;;;;;22.10;56.70;100752.63;1752190;80;21009;-50
2022/06/18 09:56:13;;;;;;;8.95;7.15;;;;;;;22.16;56.53;100750.55;1766912;79;21143;-49
2022/06/18 09:58:52;;;;;;;10.40;7.55;;;;;;;22.22;56.69;100744.40;1785401;80;21072;-50
2022/06/18 10:01:42;;;;;;;12.10;7.62;;;;;;;22.28;56.40;100744.20;1771894;80;21356;-49
2022/06/18 10:06:59;;;;;;;8.90;7.20;;;;;;;22.31;56.80;100737.61;1771188;79;21593;-50
2022/06/18 10:09:42;;;;;;;7.70;6.90;;;;;;;22.36;56.48;100740.05;1774173;79;21143;-49
2022/06/18 10:12:23;;;;;;;7.65;6.78;;;;;;;22.43;56.16;100746.81;1775574;79;21089;-50
2022/06/18 10:14:57;;;;;;;7.67;6.45;;;;;;;22.46;55.39;100731.69;1780012;80;21118;-50
2022/06/18 10:17:42;;;;;;;8.38;6.47;;;;;;;22.44;55.19;100728.34;1756917;79;21061;-51
2022/06/18 10:20:37;;;;;;;8.98;6.78;;;;;;;22.48;54.88;100727.45;1780077;79;21108;-50
2022/06/18 10:23:40;;;;;;;8.73;7.08;;;;;;;22.49;54.11;100729.94;1769379;80;21040;-50
2022/06/18 10:26:33;;;;;;;7.60;6.22;;;;;;;22.50;54.32;100726.77;1758241;80;21045;-49
2022/06/18 10:29:29;;;;;;;6.62;5.53;;;;;;;22.49;54.13;100725.10;1778795;78;21122;-50
2022/06/18 10:32:21;;;;;;;10.13;6.58;;;;;;;22.53;54.51;100732.58;1781496;78;21085;-50
2022/06/18 10:35:11;;;;;;;8.15;6.95;;;;;;;22.63;53.84;100728.22;1777517;80;21702;-50
2022/06/18 10:37:49;;;;;;;7.35;5.80;;;;;;;22.71;53.55;100726.75;1781440;79;21405;-50
2022/06/18 10:40:39;;;;;;;8.98;6.47;;;;;;;22.76;53.29;100726.99;1774771;80;22194;-52
2022/06/18 10:43:12;;;;;;;8.25;6.12;;;;;;;22.87;52.01;100728.81;1783029;79;21117;-50
2022/06/18 10:45:43;;;;;;;8.70;5.80;;;;;;;23.02;51.71;100714.77;1754821;80;21011;-50
2022/06/18 10:48:18;;;;;;;8.73;5.15;;;;;;;23.12;50.92;100717.14;1774982;79;21094;-50
2022/06/18 10:50:48;;;;;;;5.83;4.85;;;;;;;23.16;49.88;100718.39;1771392;80;21124;-50
2022/06/18 10:53:18;;;;;;;5.90;4.28;;;;;;;23.19;49.77;100723.38;1783727;78;21008;-51
2022/06/18 10:55:44;;;;;;;6.85;5.00;;;;;;;23.15;48.94;100722.94;1777109;79;21636;-50
2022/06/18 10:58:15;;;;;;;5.42;3.60;;;;;;;23.13;49.87;100722.31;1759383;80;21079;-50
2022/06/18 11:00:54;;;;;;;4.37;2.42;;;;;;;23.15;48.52;100729.66;1786641;80;21082;-50
2022/06/18 11:03:23;;;;;;;5.17;1.92;;;;;;;23.09;47.33;100727.75;1760785;80;21103;-49
2022/06/18 11:05:50;;;;;;;4.90;1.90;;;;;;;23.04;44.32;100721.29;1787353;79;21068;-50
2022/06/18 11:08:25;;;;;;;3.95;2.02;;;;;;;22.98;43.79;100722.39;1786416;79;21056;-51
2022/06/18 11:11:06;;;;;;;3.95;2.20;;;;;;;22.98;44.10;100722.89;1786607;79;21614;-50
2022/06/18 11:13:36;;;;;;;3.98;1.90;;;;;;;23.02;43.52;100718.80;1786660;79;21599;-50
2022/06/18 11:16:25;;;;;;;4.53;2.35;;;;;;;23.08;44.54;100722.08;1787783;80;21092;-50
2022/06/18 11:18:56;;;;;;;6.15;2.20;;;;;;;23.13;43.93;100720.12;1783098;79;21042;-47
2022/06/18 11:21:34;;;;;;;4.33;2.10;;;;;;;23.13;43.69;100726.34;1783535;79;21101;-49
2022/06/18 11:24:13;;;;;;;5.12;2.30;;;;;;;23.15;43.17;100728.83;1776125;79;21698;-50
2022/06/18 11:26:56;;;;;;;4.05;2.15;;;;;;;23.12;42.94;100728.70;1777626;80;21328;-50
2022/06/18 11:29:33;;;;;;;5.12;2.33;;;;;;;23.10;43.11;100726.73;1780763;79;21345;-50
2022/06/18 11:32:20;;;;;;;3.80;2.00;;;;;;;23.06;43.55;100728.14;1758191;79;21457;-50
2022/06/18 11:35:06;;;;;;;4.55;2.25;;;;;;;23.04;44.46;100732.03;1772641;80;21072;-49
2022/06/18 11:37:34;;;;;;;5.22;2.30;;;;;;;23.04;45.02;100727.48;1753400;79;21002;-50
2022/06/18 11:40:09;;;;;;;3.83;1.95;;;;;;;23.07;44.60;100735.70;1770047;80;21037;-49
2022/06/18 11:42:49;;;;;;;5.58;2.20;;;;;;;23.00;44.41;100730.25;1772162;79;21243;-50
2022/06/18 11:45:30;;;;;;;3.98;1.77;;;;;;;22.97;44.70;100736.00;1780360;79;21061;-51
2022/06/18 11:48:27;;;;;;;4.42;1.90;;;;;;;23.00;44.65;100736.96;1771830;79;21089;-50
2022/06/18 11:51:07;;;;;;;5.15;1.72;;;;;;;23.02;43.70;100731.41;1760816;79;21049;-48
2022/06/18 11:53:58;;;;;;;5.47;1.65;;;;;;;23.04;43.83;100729.34;1760761;79;21557;-47
2022/06/18 11:56:30;;;;;;;3.83;1.52;;;;;;;23.10;42.91;100725.88;1759932;80;21113;-47
2022/06/18 11:59:20;;;;;;;5.58;1.90;;;;;;;23.11;42.44;100727.03;1773994;79;21496;-48
2022/06/18 12:01:57;;;;;;;4.15;1.80;;;;;;;23.03;42.87;100729.83;1758464;79;21303;-48
2022/06/18 12:04:35;;;;;;;3.47;1.52;;;;;;;23.11;43.00;100727.03;1771102;79;21037;-48
2022/06/18 12:07:21;;;;;;;4.30;1.80;;;;;;;23.20;42.51;100727.73;1781898;79;20989;-48
2022/06/18 12:09:48;;;;;;;3.60;1.60;;;;;;;23.26;42.61;100720.73;1760064;79;22132;-49
2022/06/18 12:13:01;;;;;;;3.72;1.82;;;;;;;23.33;43.13;100725.12;1774650;79;21053;-48